sensor_id;sensor_type;location;lat;lon;timestamp;temperature;humidity
17182;DHT22;8706;48.254;16.422;2022-12-19T11:19:34;20.20;52.90
17182;DHT22;8706;48.254;16.422;2022-12-19T11:22:03;19.50;53.40
17182;DHT22;8706;48.254;16.422;2022-12-19T11:24:34;19.30;54.10
17182;DHT22;8706;48.254;16.422;2022-12-19T11:27:01;19.40;54.20
17182;DHT22;8706;48.254;16.422;2022-12-19T11:29:43;19.80;53.90
17182;DHT22;8706;48.254;16.422;2022-12-19T11:32:23;20.00;53.50
17182;DHT22;8706;48.254;16.422;2022-12-19T11:34:59;20.30;53.30
17182;DHT22;8706;48.254;16.422;2022-12-19T11:37:32;20.60;52.90
17182;DHT22;8706;48.254;16.422;2022-12-19T11:40:05;20.70;52.80
17182;DHT22;8706;48.254;16.422;2022-12-19T11:42:36;19.80;53.60
17182;DHT22;8706;48.254;16.422;2022-12-19T11:45:10;19.30;54.40
17182;DHT22;8706;48.254;16.422;2022-12-19T11:47:41;19.10;54.90
17182;DHT22;8706;48.254;16.422;2022-12-19T11:50:14;19.10;55.00
17182;DHT22;8706;48.254;16.422;2022-12-19T11:52:52;19.10;55.00
17182;DHT22;8706;48.254;16.422;2022-12-19T11:55:24;19.10;55.00
17182;DHT22;8706;48.254;16.422;2022-12-19T11:57:52;19.10;54.80
17182;DHT22;8706;48.254;16.422;2022-12-19T12:00:21;19.10;54.90
17182;DHT22;8706;48.254;16.422;2022-12-19T12:03:14;19.10;54.80
17182;DHT22;8706;48.254;16.422;2022-12-19T12:05:48;19.20;54.70
17182;DHT22;8706;48.254;16.422;2022-12-19T12:08:50;19.10;54.80
17182;DHT22;8706;48.254;16.422;2022-12-19T12:11:24;19.10;54.90
17182;DHT22;8706;48.254;16.422;2022-12-19T12:14:09;19.10;54.80
17182;DHT22;8706;48.254;16.422;2022-12-19T12:16:47;19.10;54.60
17182;DHT22;8706;48.254;16.422;2022-12-19T12:19:27;19.50;54.50
17182;DHT22;8706;48.254;16.422;2022-12-19T12:22:08;20.20;53.50
17182;DHT22;8706;48.254;16.422;2022-12-19T12:24:45;20.70;53.00
17182;DHT22;8706;48.254;16.422;2022-12-19T12:27:25;20.80;52.80
17182;DHT22;8706;48.254;16.422;2022-12-19T12:29:59;20.80;52.90
17182;DHT22;8706;48.254;16.422;2022-12-19T12:32:42;20.80;52.70
17182;DHT22;8706;48.254;16.422;2022-12-19T12:35:22;21.00;52.70
17182;DHT22;8706;48.254;16.422;2022-12-19T12:38:02;21.10;52.60
17182;DHT22;8706;48.254;16.422;2022-12-19T12:40:42;21.10;52.60
17182;DHT22;8706;48.254;16.422;2022-12-19T12:43:20;21.20;52.60
17182;DHT22;8706;48.254;16.422;2022-12-19T12:45:50;21.30;52.50
17182;DHT22;8706;48.254;16.422;2022-12-19T12:48:23;21.40;52.40
17182;DHT22;8706;48.254;16.422;2022-12-19T12:50:53;21.40;52.30
17182;DHT22;8706;48.254;16.422;2022-12-19T12:53:23;21.50;52.40
17182;DHT22;8706;48.254;16.422;2022-12-19T12:55:54;21.50;52.30
17182;DHT22;8706;48.254;16.422;2022-12-19T12:58:43;21.50;52.40
17182;DHT22;8706;48.254;16.422;2022-12-19T13:01:14;21.50;52.50
17182;DHT22;8706;48.254;16.422;2022-12-19T13:03:42;21.60;52.50
17182;DHT22;8706;48.254;16.422;2022-12-19T13:06:24;21.60;52.30
17182;DHT22;8706;48.254;16.422;2022-12-19T13:09:00;21.70;52.30
17182;DHT22;8706;48.254;16.422;2022-12-19T13:11:37;21.70;52.30
17182;DHT22;8706;48.254;16.422;2022-12-19T13:14:44;21.70;52.60
17182;DHT22;8706;48.254;16.422;2022-12-19T13:17:12;21.70;52.60
17182;DHT22;8706;48.254;16.422;2022-12-19T13:19:53;21.80;52.60
17182;DHT22;8706;48.254;16.422;2022-12-19T13:22:36;21.70;52.60
17182;DHT22;8706;48.254;16.422;2022-12-19T13:31:12;21.70;53.00
17182;DHT22;8706;48.254;16.422;2022-12-19T13:33:45;21.40;53.20
17182;DHT22;8706;48.254;16.422;2022-12-19T13:36:43;21.10;53.70
17182;DHT22;8706;48.254;16.422;2022-12-19T13:39:23;20.70;53.90
17182;DHT22;8706;48.254;16.422;2022-12-19T13:42:02;20.50;54.40
17182;DHT22;8706;48.254;16.422;2022-12-19T13:44:50;20.30;54.70
17182;DHT22;8706;48.254;16.422;2022-12-19T13:47:19;20.10;55.00
17182;DHT22;8706;48.254;16.422;2022-12-19T13:49:46;20.00;55.00
17182;DHT22;8706;48.254;16.422;2022-12-19T13:52:16;19.90;55.10
17182;DHT22;8706;48.254;16.422;2022-12-19T13:54:48;19.80;55.20
17182;DHT22;8706;48.254;16.422;2022-12-19T13:57:22;19.70;55.30
17182;DHT22;8706;48.254;16.422;2022-12-19T13:59:51;19.60;55.40
17182;DHT22;8706;48.254;16.422;2022-12-19T14:02:25;19.50;55.40
17182;DHT22;8706;48.254;16.422;2022-12-19T14:04:52;19.40;55.40
17182;DHT22;8706;48.254;16.422;2022-12-19T14:07:28;19.30;55.60
17182;DHT22;8706;48.254;16.422;2022-12-19T14:09:58;19.20;55.70
17182;DHT22;8706;48.254;16.422;2022-12-19T14:12:28;19.10;55.70
17182;DHT22;8706;48.254;16.422;2022-12-19T14:15:22;19.00;55.90
17182;DHT22;8706;48.254;16.422;2022-12-19T14:17:50;19.00;56.00
17182;DHT22;8706;48.254;16.422;2022-12-19T14:20:21;18.90;55.90
17182;DHT22;8706;48.254;16.422;2022-12-19T14:22:48;18.80;56.00
17182;DHT22;8706;48.254;16.422;2022-12-19T14:25:15;18.80;56.10
17182;DHT22;8706;48.254;16.422;2022-12-19T14:27:47;18.70;56.10
17182;DHT22;8706;48.254;16.422;2022-12-19T14:30:19;18.60;56.10
17182;DHT22;8706;48.254;16.422;2022-12-19T14:32:48;18.60;56.20
17182;DHT22;8706;48.254;16.422;2022-12-19T14:35:19;18.50;56.10
17182;DHT22;8706;48.254;16.422;2022-12-19T14:37:48;18.50;56.20
17182;DHT22;8706;48.254;16.422;2022-12-19T14:40:22;18.40;56.30
17182;DHT22;8706;48.254;16.422;2022-12-19T14:42:57;18.40;56.30
17182;DHT22;8706;48.254;16.422;2022-12-19T14:45:43;18.30;56.30
17182;DHT22;8706;48.254;16.422;2022-12-19T14:48:31;18.30;56.40
17182;DHT22;8706;48.254;16.422;2022-12-19T14:51:04;18.30;56.30
17182;DHT22;8706;48.254;16.422;2022-12-19T14:53:31;18.20;56.30
17182;DHT22;8706;48.254;16.422;2022-12-19T14:56:04;18.20;56.40
17182;DHT22;8706;48.254;16.422;2022-12-19T14:58:35;18.20;56.30
17182;DHT22;8706;48.254;16.422;2022-12-19T15:01:05;18.10;56.30
17182;DHT22;8706;48.254;16.422;2022-12-19T15:03:48;18.10;56.40
17182;DHT22;8706;48.254;16.422;2022-12-19T15:06:17;18.00;56.40
17182;DHT22;8706;48.254;16.422;2022-12-19T15:08:45;18.00;56.40
17182;DHT22;8706;48.254;16.422;2022-12-19T15:11:25;18.00;56.40
17182;DHT22;8706;48.254;16.422;2022-12-19T15:14:11;18.00;56.30
17182;DHT22;8706;48.254;16.422;2022-12-19T15:16:38;17.90;56.30
17182;DHT22;8706;48.254;16.422;2022-12-19T15:19:11;17.90;56.10
17182;DHT22;8706;48.254;16.422;2022-12-19T15:21:38;17.90;56.30
17182;DHT22;8706;48.254;16.422;2022-12-19T15:24:07;17.90;56.20
17182;DHT22;8706;48.254;16.422;2022-12-19T15:26:35;17.80;56.20
17182;DHT22;8706;48.254;16.422;2022-12-19T15:29:13;17.80;56.20
17182;DHT22;8706;48.254;16.422;2022-12-19T15:31:41;17.80;56.10
17182;DHT22;8706;48.254;16.422;2022-12-19T15:34:19;17.80;56.10
17182;DHT22;8706;48.254;16.422;2022-12-19T15:36:46;17.80;56.20
17182;DHT22;8706;48.254;16.422;2022-12-19T15:39:13;17.80;55.90
17182;DHT22;8706;48.254;16.422;2022-12-19T15:41:41;17.70;56.20
17182;DHT22;8706;48.254;16.422;2022-12-19T15:44:17;17.70;56.20
17182;DHT22;8706;48.254;16.422;2022-12-19T15:46:45;17.70;56.10
17182;DHT22;8706;48.254;16.422;2022-12-19T15:49:14;17.70;56.00
17182;DHT22;8706;48.254;16.422;2022-12-19T15:51:41;17.70;56.00
17182;DHT22;8706;48.254;16.422;2022-12-19T15:54:08;17.60;56.00
17182;DHT22;8706;48.254;16.422;2022-12-19T15:56:38;17.60;56.10
17182;DHT22;8706;48.254;16.422;2022-12-19T15:59:09;17.60;56.10
17182;DHT22;8706;48.254;16.422;2022-12-19T16:01:43;17.60;56.00
17182;DHT22;8706;48.254;16.422;2022-12-19T16:04:11;17.60;56.10
17182;DHT22;8706;48.254;16.422;2022-12-19T16:06:38;17.60;56.00
17182;DHT22;8706;48.254;16.422;2022-12-19T16:09:14;17.50;55.90
17182;DHT22;8706;48.254;16.422;2022-12-19T16:11:42;17.50;55.90
17182;DHT22;8706;48.254;16.422;2022-12-19T16:14:11;17.50;56.00
17182;DHT22;8706;48.254;16.422;2022-12-19T16:16:38;17.50;55.90
17182;DHT22;8706;48.254;16.422;2022-12-19T16:21:58;17.50;56.00
17182;DHT22;8706;48.254;16.422;2022-12-19T16:24:26;17.40;55.90
17182;DHT22;8706;48.254;16.422;2022-12-19T16:26:54;17.40;56.00
17182;DHT22;8706;48.254;16.422;2022-12-19T16:29:23;17.40;55.70
17182;DHT22;8706;48.254;16.422;2022-12-19T16:31:51;17.40;56.40
17182;DHT22;8706;48.254;16.422;2022-12-19T16:34:21;17.40;55.90
17182;DHT22;8706;48.254;16.422;2022-12-19T16:36:49;17.40;55.90
17182;DHT22;8706;48.254;16.422;2022-12-19T16:39:17;17.40;56.00
17182;DHT22;8706;48.254;16.422;2022-12-19T16:41:44;17.40;55.80
17182;DHT22;8706;48.254;16.422;2022-12-19T16:44:14;17.40;55.80
17182;DHT22;8706;48.254;16.422;2022-12-19T16:46:42;17.30;55.80
17182;DHT22;8706;48.254;16.422;2022-12-19T16:49:13;17.30;55.70
17182;DHT22;8706;48.254;16.422;2022-12-19T16:51:42;17.30;55.70
17182;DHT22;8706;48.254;16.422;2022-12-19T16:54:11;17.30;55.90
17182;DHT22;8706;48.254;16.422;2022-12-19T16:56:39;17.30;55.70
17182;DHT22;8706;48.254;16.422;2022-12-19T16:59:12;17.30;55.90
17182;DHT22;8706;48.254;16.422;2022-12-19T17:01:41;17.30;55.80
17182;DHT22;8706;48.254;16.422;2022-12-19T17:04:12;17.30;55.70
17182;DHT22;8706;48.254;16.422;2022-12-19T17:06:39;17.30;55.70
17182;DHT22;8706;48.254;16.422;2022-12-19T17:09:08;17.20;55.60
17182;DHT22;8706;48.254;16.422;2022-12-19T17:11:38;17.20;55.70
17182;DHT22;8706;48.254;16.422;2022-12-19T17:14:09;17.20;55.70
17182;DHT22;8706;48.254;16.422;2022-12-19T17:16:39;17.20;55.70
17182;DHT22;8706;48.254;16.422;2022-12-19T17:19:07;17.20;55.50
17182;DHT22;8706;48.254;16.422;2022-12-19T17:21:36;17.20;55.50
17182;DHT22;8706;48.254;16.422;2022-12-19T17:24:07;17.20;55.50
17182;DHT22;8706;48.254;16.422;2022-12-19T17:26:37;17.20;55.50
17182;DHT22;8706;48.254;16.422;2022-12-19T17:29:04;17.20;55.60
17182;DHT22;8706;48.254;16.422;2022-12-19T17:31:31;17.20;55.60
17182;DHT22;8706;48.254;16.422;2022-12-19T17:34:04;17.20;55.60
17182;DHT22;8706;48.254;16.422;2022-12-19T17:36:33;17.20;55.60
17182;DHT22;8706;48.254;16.422;2022-12-19T17:39:00;17.10;55.40
17182;DHT22;8706;48.254;16.422;2022-12-19T17:41:27;17.10;55.50
17182;DHT22;8706;48.254;16.422;2022-12-19T17:43:55;17.10;55.40
17182;DHT22;8706;48.254;16.422;2022-12-19T17:46:23;17.10;55.30
17182;DHT22;8706;48.254;16.422;2022-12-19T17:48:51;17.10;55.50
17182;DHT22;8706;48.254;16.422;2022-12-19T17:51:20;17.10;55.30
17182;DHT22;8706;48.254;16.422;2022-12-19T17:53:47;17.10;55.40
17182;DHT22;8706;48.254;16.422;2022-12-19T17:56:17;17.10;55.40
17182;DHT22;8706;48.254;16.422;2022-12-19T17:58:44;17.10;55.50
17182;DHT22;8706;48.254;16.422;2022-12-19T18:01:18;17.10;55.40
17182;DHT22;8706;48.254;16.422;2022-12-19T18:03:46;17.00;55.40
17182;DHT22;8706;48.254;16.422;2022-12-19T18:06:14;17.00;55.30
17182;DHT22;8706;48.254;16.422;2022-12-19T18:08:41;17.00;55.20
17182;DHT22;8706;48.254;16.422;2022-12-19T18:11:16;17.00;55.30
17182;DHT22;8706;48.254;16.422;2022-12-19T18:13:44;17.00;55.30
17182;DHT22;8706;48.254;16.422;2022-12-19T18:16:13;17.00;55.20
17182;DHT22;8706;48.254;16.422;2022-12-19T18:18:42;17.00;55.20
17182;DHT22;8706;48.254;16.422;2022-12-19T18:21:12;17.00;55.10
17182;DHT22;8706;48.254;16.422;2022-12-19T18:23:41;17.00;55.10
17182;DHT22;8706;48.254;16.422;2022-12-19T18:26:09;17.00;55.10
17182;DHT22;8706;48.254;16.422;2022-12-19T18:28:36;17.00;55.20
17182;DHT22;8706;48.254;16.422;2022-12-19T18:31:11;17.00;55.20
17182;DHT22;8706;48.254;16.422;2022-12-19T18:33:42;17.00;55.20
17182;DHT22;8706;48.254;16.422;2022-12-19T18:36:15;17.00;55.30
17182;DHT22;8706;48.254;16.422;2022-12-19T18:38:43;17.00;55.20
17182;DHT22;8706;48.254;16.422;2022-12-19T18:41:10;17.00;55.30
17182;DHT22;8706;48.254;16.422;2022-12-19T18:43:37;17.00;55.20
17182;DHT22;8706;48.254;16.422;2022-12-19T18:46:05;16.90;55.00
17182;DHT22;8706;48.254;16.422;2022-12-19T18:48:35;17.00;55.10
17182;DHT22;8706;48.254;16.422;2022-12-19T18:51:04;17.00;55.10
17182;DHT22;8706;48.254;16.422;2022-12-19T18:53:32;17.00;55.20
17182;DHT22;8706;48.254;16.422;2022-12-19T18:56:00;16.90;54.90
17182;DHT22;8706;48.254;16.422;2022-12-19T18:58:27;16.90;55.00
17182;DHT22;8706;48.254;16.422;2022-12-19T19:00:55;17.00;55.10
17182;DHT22;8706;48.254;16.422;2022-12-19T19:03:26;16.90;55.00
17182;DHT22;8706;48.254;16.422;2022-12-19T19:05:54;16.90;55.00
17182;DHT22;8706;48.254;16.422;2022-12-19T19:08:25;16.90;54.90
17182;DHT22;8706;48.254;16.422;2022-12-19T19:10:55;16.90;54.80
17182;DHT22;8706;48.254;16.422;2022-12-19T19:13:24;16.90;54.80
17182;DHT22;8706;48.254;16.422;2022-12-19T19:15:53;16.90;54.80
17182;DHT22;8706;48.254;16.422;2022-12-19T19:18:23;16.80;54.80
17182;DHT22;8706;48.254;16.422;2022-12-19T19:20:52;16.80;54.80
17182;DHT22;8706;48.254;16.422;2022-12-19T19:23:23;16.80;55.30
17182;DHT22;8706;48.254;16.422;2022-12-19T19:25:52;16.80;55.00
17182;DHT22;8706;48.254;16.422;2022-12-19T19:28:19;16.80;54.80
17182;DHT22;8706;48.254;16.422;2022-12-19T19:30:47;16.80;54.80
17182;DHT22;8706;48.254;16.422;2022-12-19T19:33:17;16.80;54.70
17182;DHT22;8706;48.254;16.422;2022-12-19T19:35:48;16.80;54.80
17182;DHT22;8706;48.254;16.422;2022-12-19T19:38:17;16.90;54.80
17182;DHT22;8706;48.254;16.422;2022-12-19T19:40:47;16.80;54.80
17182;DHT22;8706;48.254;16.422;2022-12-19T19:43:15;16.80;54.70
17182;DHT22;8706;48.254;16.422;2022-12-19T19:45:43;16.80;54.80
17182;DHT22;8706;48.254;16.422;2022-12-19T19:48:11;16.80;55.00
17182;DHT22;8706;48.254;16.422;2022-12-19T19:50:39;16.80;54.70
17182;DHT22;8706;48.254;16.422;2022-12-19T19:53:06;16.80;54.80
17182;DHT22;8706;48.254;16.422;2022-12-19T19:55:34;16.80;54.80
17182;DHT22;8706;48.254;16.422;2022-12-19T19:58:02;16.80;54.70
17182;DHT22;8706;48.254;16.422;2022-12-19T20:00:30;16.80;54.60
17182;DHT22;8706;48.254;16.422;2022-12-19T20:02:57;16.80;54.70
17182;DHT22;8706;48.254;16.422;2022-12-19T20:05:25;16.80;54.60
17182;DHT22;8706;48.254;16.422;2022-12-19T20:07:52;16.80;54.70
17182;DHT22;8706;48.254;16.422;2022-12-19T20:10:19;16.80;54.60
17182;DHT22;8706;48.254;16.422;2022-12-19T20:12:46;16.80;54.80
17182;DHT22;8706;48.254;16.422;2022-12-19T20:15:15;16.70;54.70
17182;DHT22;8706;48.254;16.422;2022-12-19T20:17:42;16.70;54.70
17182;DHT22;8706;48.254;16.422;2022-12-19T20:20:10;16.70;54.70
17182;DHT22;8706;48.254;16.422;2022-12-19T20:22:37;16.80;54.60
17182;DHT22;8706;48.254;16.422;2022-12-19T20:25:05;16.80;54.50
17182;DHT22;8706;48.254;16.422;2022-12-19T20:27:32;16.80;54.60
17182;DHT22;8706;48.254;16.422;2022-12-19T20:29:59;16.70;54.70
17182;DHT22;8706;48.254;16.422;2022-12-19T20:32:28;16.70;54.60
17182;DHT22;8706;48.254;16.422;2022-12-19T20:34:55;16.70;54.40
17182;DHT22;8706;48.254;16.422;2022-12-19T20:37:23;16.70;54.70
17182;DHT22;8706;48.254;16.422;2022-12-19T20:39:51;16.70;54.70
17182;DHT22;8706;48.254;16.422;2022-12-19T20:42:18;16.70;54.70
17182;DHT22;8706;48.254;16.422;2022-12-19T20:44:45;16.70;54.60
17182;DHT22;8706;48.254;16.422;2022-12-19T20:47:12;16.70;54.70
17182;DHT22;8706;48.254;16.422;2022-12-19T20:49:41;16.70;54.70
17182;DHT22;8706;48.254;16.422;2022-12-19T20:52:09;16.70;54.70
17182;DHT22;8706;48.254;16.422;2022-12-19T20:54:36;16.70;54.60
17182;DHT22;8706;48.254;16.422;2022-12-19T20:57:03;16.70;54.60
17182;DHT22;8706;48.254;16.422;2022-12-19T20:59:30;16.70;54.60
17182;DHT22;8706;48.254;16.422;2022-12-19T21:01:57;16.70;54.60
17182;DHT22;8706;48.254;16.422;2022-12-19T21:04:25;16.70;54.60
17182;DHT22;8706;48.254;16.422;2022-12-19T21:06:53;16.70;54.60
17182;DHT22;8706;48.254;16.422;2022-12-19T21:09:20;16.70;54.50
17182;DHT22;8706;48.254;16.422;2022-12-19T21:11:47;16.70;54.50
17182;DHT22;8706;48.254;16.422;2022-12-19T21:14:14;16.70;54.60
17182;DHT22;8706;48.254;16.422;2022-12-19T21:16:41;16.70;54.60
17182;DHT22;8706;48.254;16.422;2022-12-19T21:19:09;16.70;54.50
17182;DHT22;8706;48.254;16.422;2022-12-19T21:21:35;16.70;54.60
17182;DHT22;8706;48.254;16.422;2022-12-19T21:24:04;16.70;54.40
17182;DHT22;8706;48.254;16.422;2022-12-19T21:26:31;16.70;54.60
17182;DHT22;8706;48.254;16.422;2022-12-19T21:28:58;16.70;54.50
17182;DHT22;8706;48.254;16.422;2022-12-19T21:31:28;16.70;54.50
17182;DHT22;8706;48.254;16.422;2022-12-19T21:33:56;16.70;54.60
17182;DHT22;8706;48.254;16.422;2022-12-19T21:36:24;16.70;54.40
17182;DHT22;8706;48.254;16.422;2022-12-19T21:38:53;16.70;54.60
17182;DHT22;8706;48.254;16.422;2022-12-19T21:41:22;16.70;54.60
17182;DHT22;8706;48.254;16.422;2022-12-19T21:43:50;16.60;54.50
17182;DHT22;8706;48.254;16.422;2022-12-19T21:46:19;16.60;54.50
17182;DHT22;8706;48.254;16.422;2022-12-19T21:48:48;16.70;54.50
17182;DHT22;8706;48.254;16.422;2022-12-19T21:51:17;16.60;54.40
17182;DHT22;8706;48.254;16.422;2022-12-19T21:53:44;16.60;54.60
17182;DHT22;8706;48.254;16.422;2022-12-19T21:56:22;16.70;54.40
17182;DHT22;8706;48.254;16.422;2022-12-19T21:58:50;16.70;54.30
17182;DHT22;8706;48.254;16.422;2022-12-19T22:01:17;16.60;54.30
17182;DHT22;8706;48.254;16.422;2022-12-19T22:03:44;16.60;54.30
17182;DHT22;8706;48.254;16.422;2022-12-19T22:06:15;16.70;54.30
17182;DHT22;8706;48.254;16.422;2022-12-19T22:08:42;16.60;54.40
17182;DHT22;8706;48.254;16.422;2022-12-19T22:11:14;16.60;54.50
17182;DHT22;8706;48.254;16.422;2022-12-19T22:13:43;16.60;54.50
17182;DHT22;8706;48.254;16.422;2022-12-19T22:16:11;16.60;54.40
17182;DHT22;8706;48.254;16.422;2022-12-19T22:18:38;16.60;54.40
17182;DHT22;8706;48.254;16.422;2022-12-19T22:21:06;16.60;54.40
17182;DHT22;8706;48.254;16.422;2022-12-19T22:23:34;16.60;54.30
17182;DHT22;8706;48.254;16.422;2022-12-19T22:26:02;16.60;54.20
17182;DHT22;8706;48.254;16.422;2022-12-19T22:28:31;16.60;54.40
17182;DHT22;8706;48.254;16.422;2022-12-19T22:31:00;16.60;54.10
17182;DHT22;8706;48.254;16.422;2022-12-19T22:33:27;16.60;54.20
17182;DHT22;8706;48.254;16.422;2022-12-19T22:35:54;16.60;54.10
17182;DHT22;8706;48.254;16.422;2022-12-19T22:38:21;16.60;54.20
17182;DHT22;8706;48.254;16.422;2022-12-19T22:40:48;16.60;54.30
17182;DHT22;8706;48.254;16.422;2022-12-19T22:43:15;16.60;54.30
17182;DHT22;8706;48.254;16.422;2022-12-19T22:45:42;16.60;54.10
17182;DHT22;8706;48.254;16.422;2022-12-19T22:48:10;16.60;54.20
17182;DHT22;8706;48.254;16.422;2022-12-19T22:50:43;16.60;54.20
17182;DHT22;8706;48.254;16.422;2022-12-19T22:53:11;16.60;54.10
17182;DHT22;8706;48.254;16.422;2022-12-19T22:55:38;16.60;54.20
17182;DHT22;8706;48.254;16.422;2022-12-19T22:58:05;16.60;54.20
17182;DHT22;8706;48.254;16.422;2022-12-19T23:00:33;16.60;54.10
17182;DHT22;8706;48.254;16.422;2022-12-19T23:02:59;16.60;54.10
17182;DHT22;8706;48.254;16.422;2022-12-19T23:05:28;16.60;54.00
17182;DHT22;8706;48.254;16.422;2022-12-19T23:07:54;16.60;54.10
17182;DHT22;8706;48.254;16.422;2022-12-19T23:10:21;16.60;54.20
17182;DHT22;8706;48.254;16.422;2022-12-19T23:12:48;16.60;54.00
17182;DHT22;8706;48.254;16.422;2022-12-19T23:15:15;16.60;54.10
17182;DHT22;8706;48.254;16.422;2022-12-19T23:17:42;16.60;54.10
17182;DHT22;8706;48.254;16.422;2022-12-19T23:20:10;16.60;54.10
17182;DHT22;8706;48.254;16.422;2022-12-19T23:22:38;16.60;53.90
17182;DHT22;8706;48.254;16.422;2022-12-19T23:25:06;16.60;53.90
17182;DHT22;8706;48.254;16.422;2022-12-19T23:27:33;16.60;54.00
17182;DHT22;8706;48.254;16.422;2022-12-19T23:30:00;16.60;54.00
17182;DHT22;8706;48.254;16.422;2022-12-19T23:32:27;16.60;54.00
17182;DHT22;8706;48.254;16.422;2022-12-19T23:34:54;16.60;54.00
17182;DHT22;8706;48.254;16.422;2022-12-19T23:37:21;16.60;54.20
17182;DHT22;8706;48.254;16.422;2022-12-19T23:39:49;16.60;54.20
17182;DHT22;8706;48.254;16.422;2022-12-19T23:42:16;16.60;54.10
17182;DHT22;8706;48.254;16.422;2022-12-19T23:44:43;16.50;54.00
17182;DHT22;8706;48.254;16.422;2022-12-19T23:47:10;16.50;54.10
17182;DHT22;8706;48.254;16.422;2022-12-19T23:49:37;16.50;54.30
17182;DHT22;8706;48.254;16.422;2022-12-19T23:52:04;16.50;54.10
17182;DHT22;8706;48.254;16.422;2022-12-19T23:54:31;16.50;54.10
17182;DHT22;8706;48.254;16.422;2022-12-19T23:56:59;16.60;54.00
17182;DHT22;8706;48.254;16.422;2022-12-19T23:59:26;16.60;54.10
